Philomath, Georgia
Current Conditions -  °F | °C
As of 7:55 AM on Wednesday 26 Nov 2014 (Local Time) from KIIY Reporting Station
Haze Haze  
Wind Chill: 46°   Ceiling: Unl
Heat Index: 46°   Visibility: 5mi
Dew Point: 46°   Wind: 3mph
Humidity: 100%   Direction: 270°W
Pressure: 30.01"   Gusts: NA
Location:  33.8191°N, 82.8917°W
Report Text: KIIY 261255Z AUTO 27003KT 5SM BR SCT070 08/08 A3001 RMK AO2
Loading
Personal Weather Stations






























Interactive Weather Map New forecast layout! Learn more

10-Day Weather Forecast

Advertisements
Track Severe Weather on mobile